createdAt,value
2022-09-07T00:01:12.181Z,4.03
2022-09-07T00:03:40.429Z,3.08
2022-09-07T00:06:12.349Z,3.65
2022-09-07T00:08:43.984Z,3.42
2022-09-07T00:11:16.849Z,3.13
2022-09-07T00:13:48.202Z,3.15
2022-09-07T00:16:24.402Z,3.38
2022-09-07T00:19:01.453Z,3.58
2022-09-07T00:21:30.402Z,3.53
2022-09-07T00:23:58.910Z,2.70
2022-09-07T00:26:31.368Z,3.03
2022-09-07T00:29:02.150Z,2.15
2022-09-07T00:31:31.525Z,2.22
2022-09-07T00:34:01.959Z,2.42
2022-09-07T00:36:30.516Z,2.40
2022-09-07T00:38:58.851Z,2.40
2022-09-07T00:41:27.496Z,2.55
2022-09-07T00:44:17.926Z,2.63
2022-09-07T00:46:47.182Z,2.88
2022-09-07T00:49:22.688Z,3.10
2022-09-07T00:51:59.693Z,2.97
2022-09-07T00:54:46.053Z,3.03
2022-09-07T00:57:14.799Z,3.15
2022-09-07T00:59:51.685Z,2.78
2022-09-07T01:02:20.549Z,2.90
2022-09-07T01:05:00.188Z,2.55
2022-09-07T01:07:28.441Z,2.72
2022-09-07T01:09:57.300Z,3.15
2022-09-07T01:12:25.376Z,2.85
2022-09-07T01:14:56.779Z,3.08
2022-09-07T01:17:39.584Z,2.65
2022-09-07T01:20:35.484Z,2.85
2022-09-07T01:23:48.991Z,2.90
2022-09-07T01:27:22.563Z,2.70
2022-09-07T01:30:17.948Z,2.45
2022-09-07T01:33:07.728Z,2.30
2022-09-07T01:35:53.691Z,2.42
2022-09-07T01:39:00.030Z,2.20
2022-09-07T01:41:56.057Z,2.03
2022-09-07T01:44:29.592Z,2.58
2022-09-07T01:47:15.224Z,2.63
2022-09-07T01:50:00.476Z,2.33
2022-09-07T01:52:41.229Z,2.50
2022-09-07T01:55:47.971Z,2.55
2022-09-07T01:59:04.506Z,2.40
2022-09-07T02:01:45.121Z,2.67
2022-09-07T02:04:31.656Z,2.50
2022-09-07T02:07:09.307Z,2.25
2022-09-07T02:10:01.034Z,2.47
2022-09-07T02:12:45.360Z,2.22
2022-09-07T02:15:27.226Z,2.45
2022-09-07T02:18:04.409Z,2.20
2022-09-07T02:20:38.237Z,2.60
2022-09-07T02:23:17.519Z,2.53
2022-09-07T02:26:15.816Z,2.35
2022-09-07T02:28:44.094Z,2.88
2022-09-07T02:31:12.247Z,2.30
2022-09-07T02:33:41.155Z,3.05
2022-09-07T02:36:12.404Z,2.60
2022-09-07T02:38:40.569Z,2.15
2022-09-07T02:41:29.621Z,2.42
2022-09-07T02:43:57.930Z,2.58
2022-09-07T02:47:02.955Z,2.78
2022-09-07T02:50:30.950Z,2.38
2022-09-07T02:53:26.059Z,2.78
2022-09-07T02:56:31.048Z,2.67
2022-09-07T02:59:34.494Z,2.40
2022-09-07T03:02:19.276Z,2.15
2022-09-07T03:05:27.474Z,2.80
2022-09-07T03:08:05.731Z,2.67
2022-09-07T03:10:34.876Z,2.65
2022-09-07T03:13:02.943Z,2.83
2022-09-07T03:15:31.052Z,2.30
2022-09-07T03:17:59.247Z,2.78
2022-09-07T03:20:27.182Z,2.13
2022-09-07T03:22:55.069Z,2.00
2022-09-07T03:25:23.454Z,2.53
2022-09-07T03:27:51.746Z,1.80
2022-09-07T03:30:19.827Z,2.22
2022-09-07T03:32:48.212Z,1.83
2022-09-07T03:35:16.479Z,2.28
2022-09-07T03:37:44.687Z,2.20
2022-09-07T03:40:15.518Z,1.92
2022-09-07T03:42:44.065Z,2.13
2022-09-07T03:45:12.090Z,2.20
2022-09-07T03:47:40.713Z,2.15
2022-09-07T03:50:09.251Z,2.13
2022-09-07T03:52:38.046Z,2.03
2022-09-07T03:55:06.910Z,1.67
2022-09-07T03:57:34.893Z,2.17
2022-09-07T04:00:05.043Z,2.33
2022-09-07T04:02:40.827Z,2.08
2022-09-07T04:05:09.475Z,2.15
2022-09-07T04:07:37.338Z,2.30
2022-09-07T04:10:05.709Z,1.83
2022-09-07T04:12:33.628Z,2.05
2022-09-07T04:15:01.493Z,2.10
2022-09-07T04:17:29.680Z,1.90
2022-09-07T04:19:57.547Z,1.77
2022-09-07T04:22:25.421Z,1.80
2022-09-07T04:24:53.703Z,1.98
2022-09-07T04:27:21.627Z,2.38
2022-09-07T04:29:49.547Z,1.92
2022-09-07T04:32:17.916Z,1.85
2022-09-07T04:34:45.792Z,2.00
2022-09-07T04:37:14.508Z,2.30
2022-09-07T04:39:42.922Z,2.75
2022-09-07T04:42:11.001Z,2.25
2022-09-07T04:44:38.936Z,2.10
2022-09-07T04:47:07.363Z,2.35
2022-09-07T04:49:35.670Z,2.15
2022-09-07T04:52:03.756Z,2.30
2022-09-07T04:54:33.477Z,1.70
2022-09-07T04:57:02.293Z,2.17
2022-09-07T04:59:30.210Z,1.48
2022-09-07T05:01:58.587Z,2.40
2022-09-07T05:04:26.543Z,2.10
2022-09-07T05:06:54.949Z,2.20
2022-09-07T05:09:23.222Z,2.30
2022-09-07T05:11:51.702Z,2.75
2022-09-07T05:14:20.162Z,2.85
2022-09-07T05:16:48.385Z,2.53
2022-09-07T05:19:16.591Z,3.17
2022-09-07T05:21:44.474Z,2.40
2022-09-07T05:24:12.573Z,2.25
2022-09-07T05:26:40.478Z,2.50
2022-09-07T05:31:57.516Z,2.88
2022-09-07T05:36:57.109Z,2.65
2022-09-07T05:39:25.469Z,3.03
2022-09-07T05:41:53.943Z,2.72
2022-09-07T05:47:11.442Z,2.90
2022-09-07T05:49:39.591Z,3.45
2022-09-07T05:52:07.665Z,3.33
2022-09-07T05:54:35.704Z,3.53
2022-09-07T05:57:04.027Z,3.55
2022-09-07T05:59:31.997Z,3.22
2022-09-07T06:02:00.816Z,4.18
2022-09-07T06:04:29.170Z,4.32
2022-09-07T06:12:33.391Z,4.30
2022-09-07T06:15:01.912Z,4.45
2022-09-07T06:17:31.205Z,4.80
2022-09-07T06:19:59.229Z,4.78
2022-09-07T06:22:30.761Z,4.75
2022-09-07T06:24:59.637Z,5.00
2022-09-07T06:27:28.307Z,4.95
2022-09-07T06:29:56.741Z,5.10
2022-09-07T06:35:14.828Z,5.28
2022-09-07T06:37:43.146Z,6.00
2022-09-07T06:40:12.594Z,5.80
2022-09-07T06:42:41.021Z,5.65
2022-09-07T06:45:11.682Z,5.85
2022-09-07T06:47:40.629Z,6.43
2022-09-07T06:50:10.035Z,6.28
2022-09-07T06:55:28.806Z,5.63
2022-09-07T06:57:57.185Z,5.30
2022-09-07T07:00:25.217Z,5.63
2022-09-07T07:02:53.920Z,5.97
2022-09-07T07:05:21.889Z,4.88
2022-09-07T07:07:49.799Z,4.80
2022-09-07T07:10:22.136Z,4.78
2022-09-07T07:12:57.581Z,4.28
2022-09-07T07:15:28.861Z,5.13
2022-09-07T07:18:02.533Z,5.43
2022-09-07T07:20:39.671Z,4.55
2022-09-07T07:23:08.351Z,4.80
2022-09-07T07:25:36.384Z,4.45
2022-09-07T07:31:04.935Z,4.65
2022-09-07T07:33:36.545Z,3.78
2022-09-07T07:36:34.088Z,4.40
2022-09-07T07:39:04.545Z,4.40
2022-09-07T07:44:21.326Z,4.43
2022-09-07T07:46:50.930Z,4.78
2022-09-07T07:49:19.705Z,4.68
2022-09-07T07:54:38.766Z,4.18
2022-09-07T07:57:07.229Z,4.72
2022-09-07T07:59:35.814Z,4.15
2022-09-07T08:02:06.856Z,5.82
2022-09-07T08:04:36.051Z,5.18
2022-09-07T08:07:09.638Z,3.53
2022-09-07T08:09:41.082Z,3.63
2022-09-07T08:12:16.806Z,3.40
2022-09-07T08:14:46.843Z,4.15
2022-09-07T08:17:17.804Z,3.83
2022-09-07T08:19:45.995Z,4.03
2022-09-07T08:22:14.157Z,3.10
2022-09-07T08:24:42.168Z,3.40
2022-09-07T08:27:10.799Z,3.15
2022-09-07T08:29:39.138Z,3.63
2022-09-07T08:32:07.180Z,3.35
2022-09-07T08:34:38.277Z,2.92
2022-09-07T08:37:06.379Z,2.78
2022-09-07T08:39:34.185Z,3.10
2022-09-07T08:42:38.897Z,3.17
2022-09-07T08:45:14.918Z,2.58
2022-09-07T08:47:49.396Z,3.10
2022-09-07T08:50:33.885Z,2.50
2022-09-07T08:53:18.682Z,2.58
2022-09-07T08:55:56.249Z,2.70
2022-09-07T09:01:41.152Z,2.38
2022-09-07T09:04:27.671Z,2.90
2022-09-07T09:07:08.858Z,2.22
2022-09-07T09:10:34.103Z,2.67
2022-09-07T09:13:45.558Z,2.35
2022-09-07T09:16:35.631Z,2.65
2022-09-07T09:19:30.873Z,2.60
2022-09-07T09:22:26.942Z,1.92
2022-09-07T09:25:34.774Z,1.98
2022-09-07T09:28:03.463Z,2.15
2022-09-07T09:30:31.705Z,2.40
2022-09-07T09:33:29.099Z,1.88
2022-09-07T09:36:01.316Z,2.38
2022-09-07T09:38:34.305Z,2.38
2022-09-07T09:41:12.433Z,2.22
2022-09-07T09:44:03.733Z,2.53
2022-09-07T09:46:37.666Z,2.33
2022-09-07T09:49:23.983Z,2.40
2022-09-07T09:54:54.052Z,2.20
2022-09-07T10:06:22.760Z,2.58
2022-09-07T10:09:01.967Z,1.98
2022-09-07T10:14:45.469Z,2.35
2022-09-07T10:17:41.916Z,2.33
2022-09-07T10:20:20.557Z,2.60
2022-09-07T10:22:59.892Z,2.20
2022-09-07T10:25:36.468Z,2.42
2022-09-07T10:28:15.484Z,2.17
2022-09-07T10:31:32.065Z,2.35
2022-09-07T10:37:17.816Z,2.90
2022-09-07T10:43:20.477Z,2.45
2022-09-07T10:46:08.059Z,2.47
2022-09-07T10:49:07.247Z,2.40
2022-09-07T10:51:53.314Z,2.45
2022-09-07T10:54:53.878Z,2.47
2022-09-07T10:57:30.696Z,2.70
2022-09-07T11:00:22.785Z,2.80
2022-09-07T11:03:28.408Z,2.50
2022-09-07T11:06:18.279Z,2.33
2022-09-07T11:09:16.497Z,2.63
2022-09-07T11:12:26.044Z,2.55
2022-09-07T11:15:08.126Z,2.50
2022-09-07T11:18:03.399Z,2.47
2022-09-07T11:20:59.226Z,2.47
2022-09-07T11:24:11.415Z,2.70
2022-09-07T11:26:51.339Z,2.45
2022-09-07T11:29:37.418Z,2.47
2022-09-07T11:32:38.167Z,2.40
2022-09-07T11:35:25.206Z,2.80
2022-09-07T11:37:59.936Z,2.40
2022-09-07T11:40:33.986Z,2.40
2022-09-07T11:43:27.407Z,2.60
2022-09-07T11:46:11.447Z,2.63
2022-09-07T11:48:55.280Z,2.55
2022-09-07T11:51:55.543Z,2.72
2022-09-07T11:54:57.814Z,2.40
2022-09-07T11:57:54.890Z,2.67
2022-09-07T12:01:15.940Z,2.50
2022-09-07T12:04:05.492Z,2.72
2022-09-07T12:07:08.736Z,2.55
2022-09-07T12:10:01.400Z,2.80
2022-09-07T12:13:15.271Z,2.40
2022-09-07T12:16:15.972Z,2.22
2022-09-07T12:19:01.421Z,2.38
2022-09-07T12:21:47.432Z,2.47
2022-09-07T12:24:40.413Z,2.78
2022-09-07T12:27:20.511Z,2.30
2022-09-07T12:29:58.120Z,2.55
2022-09-07T12:33:06.167Z,2.40
2022-09-07T12:35:34.137Z,2.35
2022-09-07T12:38:17.968Z,2.58
2022-09-07T12:41:00.187Z,2.40
2022-09-07T12:43:48.186Z,2.80
2022-09-07T12:46:46.645Z,2.72
2022-09-07T12:50:12.163Z,2.42
2022-09-07T12:53:13.768Z,2.50
2022-09-07T12:56:18.007Z,2.38
2022-09-07T12:59:06.581Z,2.63
2022-09-07T13:01:46.304Z,2.25
2022-09-07T13:04:48.107Z,2.33
2022-09-07T13:07:37.936Z,2.33
2022-09-07T13:10:34.286Z,2.38
2022-09-07T13:19:46.400Z,2.10
2022-09-07T13:22:37.530Z,2.05
2022-09-07T13:25:26.456Z,2.70
2022-09-07T13:28:14.416Z,2.42
2022-09-07T13:31:06.137Z,2.60
2022-09-07T13:33:52.062Z,2.80
2022-09-07T13:36:36.818Z,2.08
2022-09-07T13:39:12.963Z,2.30
2022-09-07T13:41:49.223Z,2.45
2022-09-07T13:44:26.615Z,2.25
2022-09-07T13:47:29.953Z,1.98
2022-09-07T13:50:04.776Z,2.47
2022-09-07T13:53:10.945Z,2.47
2022-09-07T13:56:11.215Z,2.22
2022-09-07T13:58:46.479Z,2.53
2022-09-07T14:01:19.135Z,2.20
2022-09-07T14:04:00.151Z,2.10
2022-09-07T14:06:33.072Z,2.13
2022-09-07T14:09:21.384Z,2.28
2022-09-07T14:11:54.605Z,2.28
2022-09-07T14:14:25.078Z,2.10
2022-09-07T14:16:59.421Z,2.30
2022-09-07T14:19:48.838Z,2.60
2022-09-07T14:22:20.796Z,2.10
2022-09-07T14:25:04.615Z,2.30
2022-09-07T14:27:37.212Z,2.50
2022-09-07T14:30:24.701Z,2.33
2022-09-07T14:32:56.391Z,2.05
2022-09-07T14:35:37.073Z,2.08
2022-09-07T14:41:19.124Z,2.35
2022-09-07T14:43:57.065Z,3.40
2022-09-07T14:46:33.306Z,2.28
2022-09-07T14:49:18.827Z,2.40
2022-09-07T14:51:48.438Z,2.15
2022-09-07T14:54:33.002Z,2.20
2022-09-07T14:57:33.087Z,2.20
2022-09-07T15:01:37.141Z,2.42
2022-09-07T15:04:02.141Z,4.38
2022-09-07T15:09:35.399Z,2.28
2022-09-07T15:12:38.119Z,2.50
2022-09-07T15:15:37.171Z,2.28
2022-09-07T15:18:46.958Z,2.25
2022-09-07T15:21:14.976Z,2.08
2022-09-07T15:23:43.048Z,2.15
2022-09-07T15:27:02.024Z,2.10
2022-09-07T15:29:15.250Z,2.15
2022-09-07T15:31:49.871Z,3.42
2022-09-07T15:34:25.198Z,2.35
2022-09-07T15:36:56.355Z,2.50
2022-09-07T15:39:30.123Z,2.20
2022-09-07T15:42:00.515Z,2.40
2022-09-07T15:44:46.694Z,2.40
2022-09-07T15:50:03.533Z,3.35
2022-09-07T15:52:33.886Z,2.03
2022-09-07T15:55:01.900Z,2.47
2022-09-07T16:00:20.160Z,2.22
2022-09-07T16:03:06.209Z,2.42
2022-09-07T16:05:35.145Z,2.53
2022-09-07T16:10:54.308Z,9.18
2022-09-07T16:13:24.438Z,2.25
2022-09-07T16:15:53.147Z,2.05
2022-09-07T16:18:21.202Z,2.30
2022-09-07T16:20:52.653Z,2.55
2022-09-07T16:23:21.094Z,2.42
2022-09-07T16:26:00.525Z,2.33
2022-09-07T16:28:29.435Z,2.30
2022-09-07T16:30:57.751Z,2.65
2022-09-07T16:33:33.040Z,2.90
2022-09-07T16:36:12.028Z,3.22
2022-09-07T16:38:44.016Z,3.25
2022-09-07T16:41:20.545Z,3.08
2022-09-07T16:43:57.162Z,3.05
2022-09-07T16:46:30.910Z,3.03
2022-09-07T16:48:59.315Z,3.65
2022-09-07T16:51:28.771Z,3.50
2022-09-07T16:53:58.991Z,4.20
2022-09-07T16:56:30.232Z,3.20
2022-09-07T16:59:03.054Z,3.60
2022-09-07T17:01:34.888Z,3.88
2022-09-07T17:04:08.008Z,4.10
2022-09-07T17:06:39.712Z,3.67
2022-09-07T17:09:08.114Z,3.33
2022-09-07T17:11:38.628Z,4.07
2022-09-07T17:14:07.707Z,4.13
2022-09-07T17:16:41.137Z,4.93
2022-09-07T17:22:01.587Z,5.40
2022-09-07T17:24:32.284Z,5.28
2022-09-07T17:27:01.549Z,5.10
2022-09-07T17:29:33.898Z,4.70
2022-09-07T17:34:55.627Z,4.93
2022-09-07T17:37:23.688Z,5.22
2022-09-07T17:39:52.194Z,6.13
2022-09-07T17:42:20.689Z,4.63
2022-09-07T17:44:52.756Z,5.57
2022-09-07T17:47:21.673Z,5.53
2022-09-07T17:49:49.707Z,5.47
2022-09-07T17:52:17.665Z,5.18
2022-09-07T17:54:45.909Z,5.28
2022-09-07T17:57:13.966Z,4.85
2022-09-07T18:03:03.496Z,4.55
2022-09-07T18:05:33.911Z,4.60
2022-09-07T18:08:02.885Z,4.10
2022-09-07T18:13:33.572Z,3.78
2022-09-07T18:16:19.409Z,4.40
2022-09-07T18:18:48.347Z,4.35
2022-09-07T18:21:24.278Z,4.43
2022-09-07T18:23:59.527Z,4.72
2022-09-07T18:26:27.979Z,4.63
2022-09-07T18:29:04.302Z,4.80
2022-09-07T18:31:32.854Z,4.90
2022-09-07T18:34:01.857Z,4.40
2022-09-07T18:36:30.295Z,5.68
2022-09-07T18:39:03.398Z,5.50
2022-09-07T18:41:34.913Z,6.10
2022-09-07T18:44:03.811Z,6.00
2022-09-07T18:46:32.119Z,5.53
2022-09-07T18:49:00.078Z,5.90
2022-09-07T18:51:30.284Z,5.53
2022-09-07T18:53:59.107Z,5.75
2022-09-07T18:56:27.136Z,5.72
2022-09-07T18:58:58.287Z,5.53
2022-09-07T19:01:26.547Z,6.47
2022-09-07T19:03:57.037Z,6.28
2022-09-07T19:06:26.494Z,6.78
2022-09-07T19:08:56.606Z,7.50
2022-09-07T19:11:26.229Z,7.20
2022-09-07T19:14:05.509Z,7.22
2022-09-07T19:16:35.534Z,7.50
2022-09-07T19:19:07.605Z,8.20
2022-09-07T19:21:40.647Z,7.28
2022-09-07T19:24:15.427Z,7.63
2022-09-07T19:26:47.882Z,8.25
2022-09-07T19:29:19.633Z,7.60
2022-09-07T19:32:04.444Z,7.55
2022-09-07T19:34:42.730Z,8.57
2022-09-07T19:37:13.465Z,8.68
2022-09-07T19:39:41.450Z,7.65
2022-09-07T19:42:10.552Z,7.90
2022-09-07T19:44:38.648Z,8.70
2022-09-07T19:47:07.214Z,8.32
2022-09-07T19:49:35.696Z,7.72
2022-09-07T19:52:04.351Z,9.30
2022-09-07T19:54:32.762Z,9.32
2022-09-07T19:57:02.930Z,8.50
2022-09-07T19:59:31.133Z,8.85
2022-09-07T20:01:59.356Z,7.88
2022-09-07T20:04:28.874Z,8.35
2022-09-07T20:06:57.636Z,7.63
2022-09-07T20:09:26.067Z,7.40
2022-09-07T20:11:54.382Z,8.48
2022-09-07T20:14:22.761Z,8.40
2022-09-07T20:16:50.978Z,7.75
2022-09-07T20:19:19.970Z,7.57
2022-09-07T20:21:49.314Z,7.82
2022-09-07T20:24:22.381Z,7.82
2022-09-07T20:26:52.076Z,8.35
2022-09-07T20:29:28.889Z,7.40
2022-09-07T20:32:01.583Z,6.40
2022-09-07T20:34:30.121Z,7.47
2022-09-07T20:36:59.172Z,7.93
2022-09-07T20:39:27.948Z,9.15
2022-09-07T20:41:56.037Z,7.38
2022-09-07T20:44:24.203Z,7.13
2022-09-07T20:46:57.365Z,6.82
2022-09-07T20:49:27.064Z,7.03
2022-09-07T20:51:54.978Z,6.68
2022-09-07T20:54:22.993Z,7.75
2022-09-07T20:56:51.678Z,6.85
2022-09-07T20:59:21.967Z,7.30
2022-09-07T21:01:50.522Z,7.20
2022-09-07T21:04:18.644Z,7.07
2022-09-07T21:06:47.094Z,7.55
2022-09-07T21:09:15.220Z,6.78
2022-09-07T21:11:46.144Z,6.68
2022-09-07T21:14:17.982Z,6.03
2022-09-07T21:16:46.249Z,6.85
2022-09-07T21:19:14.207Z,6.38
2022-09-07T21:21:43.267Z,6.85
2022-09-07T21:24:23.209Z,6.28
2022-09-07T21:26:52.309Z,6.13
2022-09-07T21:29:25.825Z,6.35
2022-09-07T21:31:55.084Z,6.40
2022-09-07T21:34:24.157Z,6.30
2022-09-07T21:36:53.112Z,6.32
2022-09-07T21:39:22.226Z,7.35
2022-09-07T21:41:50.313Z,6.88
2022-09-07T21:44:18.477Z,7.15
2022-09-07T21:46:46.855Z,6.78
2022-09-07T21:49:14.834Z,6.70
2022-09-07T21:51:43.346Z,6.70
2022-09-07T21:54:11.605Z,6.78
2022-09-07T21:56:44.372Z,6.53
2022-09-07T21:59:14.839Z,6.72
2022-09-07T22:01:42.913Z,6.68
2022-09-07T22:04:11.026Z,6.70
2022-09-07T22:06:40.720Z,7.93
2022-09-07T22:09:10.662Z,7.57
2022-09-07T22:11:39.310Z,7.13
2022-09-07T22:14:13.378Z,7.38
2022-09-07T22:16:41.323Z,7.13
2022-09-07T22:19:09.407Z,6.95
2022-09-07T22:21:38.022Z,7.63
2022-09-07T22:24:08.004Z,8.25
2022-09-07T22:26:37.842Z,7.60
2022-09-07T22:29:08.561Z,7.80
2022-09-07T22:31:38.689Z,8.07
2022-09-07T22:34:09.518Z,8.80
2022-09-07T22:36:44.153Z,8.40
2022-09-07T22:39:18.791Z,8.18
2022-09-07T22:41:48.312Z,8.13
2022-09-07T22:44:18.728Z,8.05
2022-09-07T22:46:47.994Z,7.45
2022-09-07T22:49:17.447Z,7.97
2022-09-07T22:51:45.830Z,8.35
2022-09-07T22:54:13.999Z,8.07
2022-09-07T22:56:42.549Z,8.55
2022-09-07T22:59:12.034Z,8.52
2022-09-07T23:01:40.807Z,8.18
2022-09-07T23:04:10.280Z,8.68
2022-09-07T23:06:41.913Z,7.45
2022-09-07T23:09:14.091Z,7.80
2022-09-07T23:11:42.631Z,8.07
2022-09-07T23:14:20.666Z,7.25
2022-09-07T23:16:49.642Z,6.28
2022-09-07T23:19:19.888Z,5.82
2022-09-07T23:21:48.515Z,6.88
2022-09-07T23:24:19.039Z,5.78
2022-09-07T23:26:47.226Z,6.53
2022-09-07T23:29:15.764Z,6.43
2022-09-07T23:31:46.351Z,6.00
2022-09-07T23:34:14.299Z,6.65
2022-09-07T23:36:42.437Z,5.70
2022-09-07T23:39:11.155Z,6.07
2022-09-07T23:41:38.940Z,5.90
2022-09-07T23:44:07.175Z,5.97
2022-09-07T23:46:35.165Z,6.25
2022-09-07T23:49:03.200Z,6.38
2022-09-07T23:51:31.225Z,6.38
2022-09-07T23:53:59.565Z,6.00
2022-09-07T23:56:27.483Z,5.85
2022-09-07T23:58:55.442Z,6.68
